sensor_id;sensor_type;location;lat;lon;timestamp;temperature;humidity
12839;DHT22;6486;51.034;5.262;2024-01-07T00:01:33;19.30;43.20
12839;DHT22;6486;51.034;5.262;2024-01-07T00:03:59;19.30;43.20
12839;DHT22;6486;51.034;5.262;2024-01-07T00:06:25;19.30;43.20
12839;DHT22;6486;51.034;5.262;2024-01-07T00:08:50;19.30;43.20
12839;DHT22;6486;51.034;5.262;2024-01-07T00:11:16;19.30;43.20
12839;DHT22;6486;51.034;5.262;2024-01-07T00:13:42;19.30;43.20
12839;DHT22;6486;51.034;5.262;2024-01-07T00:16:07;19.30;43.20
12839;DHT22;6486;51.034;5.262;2024-01-07T00:18:33;19.30;43.20
12839;DHT22;6486;51.034;5.262;2024-01-07T00:20:58;19.30;43.20
12839;DHT22;6486;51.034;5.262;2024-01-07T00:23:24;19.30;43.30
12839;DHT22;6486;51.034;5.262;2024-01-07T00:25:50;19.30;43.20
12839;DHT22;6486;51.034;5.262;2024-01-07T00:28:16;19.30;43.20
12839;DHT22;6486;51.034;5.262;2024-01-07T00:30:41;19.20;43.20
12839;DHT22;6486;51.034;5.262;2024-01-07T00:33:07;19.20;43.20
12839;DHT22;6486;51.034;5.262;2024-01-07T00:35:32;19.20;43.10
12839;DHT22;6486;51.034;5.262;2024-01-07T00:37:58;19.20;43.20
12839;DHT22;6486;51.034;5.262;2024-01-07T00:40:24;19.20;43.20
12839;DHT22;6486;51.034;5.262;2024-01-07T00:42:50;19.20;43.20
12839;DHT22;6486;51.034;5.262;2024-01-07T00:45:17;19.20;43.20
12839;DHT22;6486;51.034;5.262;2024-01-07T00:47:43;19.20;43.20
12839;DHT22;6486;51.034;5.262;2024-01-07T00:50:09;19.20;43.20
12839;DHT22;6486;51.034;5.262;2024-01-07T00:52:35;19.20;43.20
12839;DHT22;6486;51.034;5.262;2024-01-07T00:55:03;19.20;43.20
12839;DHT22;6486;51.034;5.262;2024-01-07T00:57:30;19.20;43.20
12839;DHT22;6486;51.034;5.262;2024-01-07T00:59:55;19.10;43.10
12839;DHT22;6486;51.034;5.262;2024-01-07T01:02:21;19.10;43.10
12839;DHT22;6486;51.034;5.262;2024-01-07T01:04:47;19.10;43.10
12839;DHT22;6486;51.034;5.262;2024-01-07T01:07:13;19.10;43.20
12839;DHT22;6486;51.034;5.262;2024-01-07T01:09:39;19.10;43.10
12839;DHT22;6486;51.034;5.262;2024-01-07T01:12:05;19.10;43.10
12839;DHT22;6486;51.034;5.262;2024-01-07T01:14:30;19.10;43.10
12839;DHT22;6486;51.034;5.262;2024-01-07T01:16:56;19.10;43.10
12839;DHT22;6486;51.034;5.262;2024-01-07T01:19:23;19.10;43.10
12839;DHT22;6486;51.034;5.262;2024-01-07T01:21:49;19.10;43.20
12839;DHT22;6486;51.034;5.262;2024-01-07T01:24:15;19.10;43.10
12839;DHT22;6486;51.034;5.262;2024-01-07T01:26:41;19.10;43.10
12839;DHT22;6486;51.034;5.262;2024-01-07T01:29:07;19.10;43.10
12839;DHT22;6486;51.034;5.262;2024-01-07T01:31:32;19.10;43.10
12839;DHT22;6486;51.034;5.262;2024-01-07T01:33:58;19.00;43.70
12839;DHT22;6486;51.034;5.262;2024-01-07T01:36:24;19.00;43.10
12839;DHT22;6486;51.034;5.262;2024-01-07T01:38:49;19.10;43.10
12839;DHT22;6486;51.034;5.262;2024-01-07T01:41:16;19.00;43.00
12839;DHT22;6486;51.034;5.262;2024-01-07T01:43:42;19.00;43.00
12839;DHT22;6486;51.034;5.262;2024-01-07T01:46:08;19.00;43.10
12839;DHT22;6486;51.034;5.262;2024-01-07T01:48:35;19.00;43.10
12839;DHT22;6486;51.034;5.262;2024-01-07T01:51:02;19.00;43.10
12839;DHT22;6486;51.034;5.262;2024-01-07T01:53:28;19.00;43.10
12839;DHT22;6486;51.034;5.262;2024-01-07T01:55:56;19.00;43.10
12839;DHT22;6486;51.034;5.262;2024-01-07T01:58:23;19.00;43.10
12839;DHT22;6486;51.034;5.262;2024-01-07T02:00:49;19.00;43.10
12839;DHT22;6486;51.034;5.262;2024-01-07T02:03:16;19.00;43.10
12839;DHT22;6486;51.034;5.262;2024-01-07T02:05:42;19.00;43.10
12839;DHT22;6486;51.034;5.262;2024-01-07T02:08:08;19.00;43.10
12839;DHT22;6486;51.034;5.262;2024-01-07T02:10:34;19.00;43.10
12839;DHT22;6486;51.034;5.262;2024-01-07T02:13:03;19.00;43.10
12839;DHT22;6486;51.034;5.262;2024-01-07T02:15:29;18.90;43.00
12839;DHT22;6486;51.034;5.262;2024-01-07T02:17:55;18.90;43.10
12839;DHT22;6486;51.034;5.262;2024-01-07T02:20:21;18.90;43.00
12839;DHT22;6486;51.034;5.262;2024-01-07T02:22:47;18.90;43.10
12839;DHT22;6486;51.034;5.262;2024-01-07T02:25:13;18.90;43.00
12839;DHT22;6486;51.034;5.262;2024-01-07T02:27:38;18.90;43.00
12839;DHT22;6486;51.034;5.262;2024-01-07T02:30:04;18.90;43.00
12839;DHT22;6486;51.034;5.262;2024-01-07T02:32:30;18.90;43.00
12839;DHT22;6486;51.034;5.262;2024-01-07T02:35:01;18.90;43.00
12839;DHT22;6486;51.034;5.262;2024-01-07T02:37:27;18.90;43.00
12839;DHT22;6486;51.034;5.262;2024-01-07T02:39:52;18.90;43.00
12839;DHT22;6486;51.034;5.262;2024-01-07T02:42:18;18.90;43.00
12839;DHT22;6486;51.034;5.262;2024-01-07T02:44:44;18.90;43.00
12839;DHT22;6486;51.034;5.262;2024-01-07T02:47:09;18.80;42.90
12839;DHT22;6486;51.034;5.262;2024-01-07T02:49:35;18.80;42.90
12839;DHT22;6486;51.034;5.262;2024-01-07T02:52:01;18.80;42.90
12839;DHT22;6486;51.034;5.262;2024-01-07T02:54:26;18.80;42.90
12839;DHT22;6486;51.034;5.262;2024-01-07T02:56:52;18.90;43.00
12839;DHT22;6486;51.034;5.262;2024-01-07T02:59:18;18.90;43.00
12839;DHT22;6486;51.034;5.262;2024-01-07T03:01:43;18.90;43.00
12839;DHT22;6486;51.034;5.262;2024-01-07T03:04:12;18.80;42.90
12839;DHT22;6486;51.034;5.262;2024-01-07T03:06:38;18.80;42.90
12839;DHT22;6486;51.034;5.262;2024-01-07T03:09:03;18.80;42.90
12839;DHT22;6486;51.034;5.262;2024-01-07T03:11:29;18.80;42.90
12839;DHT22;6486;51.034;5.262;2024-01-07T03:13:56;18.80;42.90
12839;DHT22;6486;51.034;5.262;2024-01-07T03:16:25;18.80;42.90
12839;DHT22;6486;51.034;5.262;2024-01-07T03:18:51;18.80;42.90
12839;DHT22;6486;51.034;5.262;2024-01-07T03:21:18;18.80;42.90
12839;DHT22;6486;51.034;5.262;2024-01-07T03:23:45;18.80;42.90
12839;DHT22;6486;51.034;5.262;2024-01-07T03:26:11;18.80;43.60
12839;DHT22;6486;51.034;5.262;2024-01-07T03:28:36;18.80;42.90
12839;DHT22;6486;51.034;5.262;2024-01-07T03:31:09;18.80;42.90
12839;DHT22;6486;51.034;5.262;2024-01-07T03:33:34;18.80;42.90
12839;DHT22;6486;51.034;5.262;2024-01-07T03:36:00;18.80;42.90
12839;DHT22;6486;51.034;5.262;2024-01-07T03:38:26;18.80;42.90
12839;DHT22;6486;51.034;5.262;2024-01-07T03:40:51;18.80;42.90
12839;DHT22;6486;51.034;5.262;2024-01-07T03:43:17;18.80;42.90
12839;DHT22;6486;51.034;5.262;2024-01-07T03:45:42;18.80;42.90
12839;DHT22;6486;51.034;5.262;2024-01-07T03:48:08;18.80;42.90
12839;DHT22;6486;51.034;5.262;2024-01-07T03:50:34;18.70;42.70
12839;DHT22;6486;51.034;5.262;2024-01-07T03:53:00;18.70;42.70
12839;DHT22;6486;51.034;5.262;2024-01-07T03:55:25;18.70;42.80
12839;DHT22;6486;51.034;5.262;2024-01-07T03:57:51;18.70;42.80
12839;DHT22;6486;51.034;5.262;2024-01-07T04:00:17;18.70;42.70
12839;DHT22;6486;51.034;5.262;2024-01-07T04:02:43;18.70;42.70
12839;DHT22;6486;51.034;5.262;2024-01-07T04:05:09;18.70;42.70
12839;DHT22;6486;51.034;5.262;2024-01-07T04:07:35;18.70;42.70
12839;DHT22;6486;51.034;5.262;2024-01-07T04:10:00;18.70;43.40
12839;DHT22;6486;51.034;5.262;2024-01-07T04:12:26;18.70;42.70
12839;DHT22;6486;51.034;5.262;2024-01-07T04:14:52;18.70;42.70
12839;DHT22;6486;51.034;5.262;2024-01-07T04:17:17;18.70;42.70
12839;DHT22;6486;51.034;5.262;2024-01-07T04:19:43;18.70;42.70
12839;DHT22;6486;51.034;5.262;2024-01-07T04:22:09;18.70;42.70
12839;DHT22;6486;51.034;5.262;2024-01-07T04:24:34;18.70;42.70
12839;DHT22;6486;51.034;5.262;2024-01-07T04:27:00;18.70;42.70
12839;DHT22;6486;51.034;5.262;2024-01-07T04:29:25;18.70;42.70
12839;DHT22;6486;51.034;5.262;2024-01-07T04:31:51;18.70;42.70
12839;DHT22;6486;51.034;5.262;2024-01-07T04:34:17;18.70;42.70
12839;DHT22;6486;51.034;5.262;2024-01-07T04:36:42;18.70;42.70
12839;DHT22;6486;51.034;5.262;2024-01-07T04:39:08;18.70;42.70
12839;DHT22;6486;51.034;5.262;2024-01-07T04:41:35;18.60;42.70
12839;DHT22;6486;51.034;5.262;2024-01-07T04:44:01;18.60;42.60
12839;DHT22;6486;51.034;5.262;2024-01-07T04:46:26;18.60;42.60
12839;DHT22;6486;51.034;5.262;2024-01-07T04:48:52;18.60;42.70
12839;DHT22;6486;51.034;5.262;2024-01-07T04:51:18;18.60;42.60
12839;DHT22;6486;51.034;5.262;2024-01-07T04:53:43;18.60;42.70
12839;DHT22;6486;51.034;5.262;2024-01-07T04:56:09;18.60;42.70
12839;DHT22;6486;51.034;5.262;2024-01-07T04:58:34;18.60;42.70
12839;DHT22;6486;51.034;5.262;2024-01-07T05:01:00;18.60;42.70
12839;DHT22;6486;51.034;5.262;2024-01-07T05:03:26;18.60;42.70
12839;DHT22;6486;51.034;5.262;2024-01-07T05:05:51;18.60;42.70
12839;DHT22;6486;51.034;5.262;2024-01-07T05:08:17;18.60;42.70
12839;DHT22;6486;51.034;5.262;2024-01-07T05:10:43;18.60;42.70
12839;DHT22;6486;51.034;5.262;2024-01-07T05:13:08;18.60;42.70
12839;DHT22;6486;51.034;5.262;2024-01-07T05:15:35;18.60;42.70
12839;DHT22;6486;51.034;5.262;2024-01-07T05:18:01;18.60;42.70
12839;DHT22;6486;51.034;5.262;2024-01-07T05:20:27;18.50;42.60
12839;DHT22;6486;51.034;5.262;2024-01-07T05:22:53;18.50;42.60
12839;DHT22;6486;51.034;5.262;2024-01-07T05:25:19;18.50;42.60
12839;DHT22;6486;51.034;5.262;2024-01-07T05:27:44;18.50;42.60
12839;DHT22;6486;51.034;5.262;2024-01-07T05:30:10;18.60;42.70
12839;DHT22;6486;51.034;5.262;2024-01-07T05:32:36;18.60;42.70
12839;DHT22;6486;51.034;5.262;2024-01-07T05:35:02;18.60;42.70
12839;DHT22;6486;51.034;5.262;2024-01-07T05:37:28;18.60;42.70
12839;DHT22;6486;51.034;5.262;2024-01-07T05:39:53;18.60;42.70
12839;DHT22;6486;51.034;5.262;2024-01-07T05:42:19;18.50;42.60
12839;DHT22;6486;51.034;5.262;2024-01-07T05:44:45;18.60;42.70
12839;DHT22;6486;51.034;5.262;2024-01-07T05:47:10;18.50;42.60
12839;DHT22;6486;51.034;5.262;2024-01-07T05:49:36;18.50;42.60
12839;DHT22;6486;51.034;5.262;2024-01-07T05:52:02;18.50;42.60
12839;DHT22;6486;51.034;5.262;2024-01-07T05:54:28;18.50;42.60
12839;DHT22;6486;51.034;5.262;2024-01-07T05:56:53;18.50;42.60
12839;DHT22;6486;51.034;5.262;2024-01-07T05:59:19;18.50;42.60
12839;DHT22;6486;51.034;5.262;2024-01-07T06:01:45;18.50;42.60
12839;DHT22;6486;51.034;5.262;2024-01-07T06:04:10;18.50;42.60
12839;DHT22;6486;51.034;5.262;2024-01-07T06:06:36;18.50;42.60
12839;DHT22;6486;51.034;5.262;2024-01-07T06:09:02;18.50;42.60
12839;DHT22;6486;51.034;5.262;2024-01-07T06:11:28;18.50;42.60
12839;DHT22;6486;51.034;5.262;2024-01-07T06:13:53;18.50;42.60
12839;DHT22;6486;51.034;5.262;2024-01-07T06:16:19;18.50;42.60
12839;DHT22;6486;51.034;5.262;2024-01-07T06:18:44;18.50;42.60
12839;DHT22;6486;51.034;5.262;2024-01-07T06:21:10;18.50;42.60
12839;DHT22;6486;51.034;5.262;2024-01-07T06:23:36;18.40;42.50
12839;DHT22;6486;51.034;5.262;2024-01-07T06:26:05;18.40;42.50
12839;DHT22;6486;51.034;5.262;2024-01-07T06:28:32;18.50;42.70
12839;DHT22;6486;51.034;5.262;2024-01-07T06:30:58;18.40;42.50
12839;DHT22;6486;51.034;5.262;2024-01-07T06:33:23;18.40;42.50
12839;DHT22;6486;51.034;5.262;2024-01-07T06:35:49;18.40;42.50
12839;DHT22;6486;51.034;5.262;2024-01-07T06:38:15;18.40;42.60
12839;DHT22;6486;51.034;5.262;2024-01-07T06:40:40;18.40;42.50
12839;DHT22;6486;51.034;5.262;2024-01-07T06:43:06;18.40;42.50
12839;DHT22;6486;51.034;5.262;2024-01-07T06:45:32;18.40;42.60
12839;DHT22;6486;51.034;5.262;2024-01-07T06:47:58;18.40;42.60
12839;DHT22;6486;51.034;5.262;2024-01-07T06:50:24;18.40;42.50
12839;DHT22;6486;51.034;5.262;2024-01-07T06:52:49;18.40;42.60
12839;DHT22;6486;51.034;5.262;2024-01-07T06:55:15;18.40;42.60
12839;DHT22;6486;51.034;5.262;2024-01-07T06:57:40;18.40;42.50
12839;DHT22;6486;51.034;5.262;2024-01-07T07:00:06;18.40;42.50
12839;DHT22;6486;51.034;5.262;2024-01-07T07:02:33;18.40;42.50
12839;DHT22;6486;51.034;5.262;2024-01-07T07:04:59;18.40;42.50
12839;DHT22;6486;51.034;5.262;2024-01-07T07:07:25;18.40;42.50
12839;DHT22;6486;51.034;5.262;2024-01-07T07:09:50;18.40;42.50
12839;DHT22;6486;51.034;5.262;2024-01-07T07:12:18;18.40;42.50
12839;DHT22;6486;51.034;5.262;2024-01-07T07:14:44;18.30;42.40
12839;DHT22;6486;51.034;5.262;2024-01-07T07:17:10;18.40;42.50
12839;DHT22;6486;51.034;5.262;2024-01-07T07:19:35;18.40;42.50
12839;DHT22;6486;51.034;5.262;2024-01-07T07:22:01;18.30;42.40
12839;DHT22;6486;51.034;5.262;2024-01-07T07:24:27;18.40;42.50
12839;DHT22;6486;51.034;5.262;2024-01-07T07:26:53;18.30;42.50
12839;DHT22;6486;51.034;5.262;2024-01-07T07:29:18;18.30;42.50
12839;DHT22;6486;51.034;5.262;2024-01-07T07:31:44;18.30;42.40
12839;DHT22;6486;51.034;5.262;2024-01-07T07:34:09;18.30;42.40
12839;DHT22;6486;51.034;5.262;2024-01-07T07:36:36;18.30;42.40
12839;DHT22;6486;51.034;5.262;2024-01-07T07:39:02;18.30;42.40
12839;DHT22;6486;51.034;5.262;2024-01-07T07:41:27;18.30;42.40
12839;DHT22;6486;51.034;5.262;2024-01-07T07:43:54;18.30;42.40
12839;DHT22;6486;51.034;5.262;2024-01-07T07:46:20;18.30;42.40
12839;DHT22;6486;51.034;5.262;2024-01-07T07:48:45;18.30;42.40
12839;DHT22;6486;51.034;5.262;2024-01-07T07:51:11;18.30;42.40
12839;DHT22;6486;51.034;5.262;2024-01-07T07:53:39;18.30;42.40
12839;DHT22;6486;51.034;5.262;2024-01-07T07:56:06;18.30;42.40
12839;DHT22;6486;51.034;5.262;2024-01-07T07:58:32;18.30;42.40
12839;DHT22;6486;51.034;5.262;2024-01-07T08:00:57;18.30;42.30
12839;DHT22;6486;51.034;5.262;2024-01-07T08:03:23;18.30;42.30
12839;DHT22;6486;51.034;5.262;2024-01-07T08:05:49;18.30;42.30
12839;DHT22;6486;51.034;5.262;2024-01-07T08:08:15;18.30;42.20
12839;DHT22;6486;51.034;5.262;2024-01-07T08:10:42;18.30;42.10
12839;DHT22;6486;51.034;5.262;2024-01-07T08:13:08;18.40;42.20
12839;DHT22;6486;51.034;5.262;2024-01-07T08:15:34;18.40;42.10
12839;DHT22;6486;51.034;5.262;2024-01-07T08:18:01;18.40;42.10
12839;DHT22;6486;51.034;5.262;2024-01-07T08:20:27;18.40;42.00
12839;DHT22;6486;51.034;5.262;2024-01-07T08:22:53;18.40;42.00
12839;DHT22;6486;51.034;5.262;2024-01-07T08:25:19;18.40;42.00
12839;DHT22;6486;51.034;5.262;2024-01-07T08:27:44;18.40;41.90
12839;DHT22;6486;51.034;5.262;2024-01-07T08:30:11;18.50;42.00
12839;DHT22;6486;51.034;5.262;2024-01-07T08:32:39;18.50;41.90
12839;DHT22;6486;51.034;5.262;2024-01-07T08:35:05;18.50;41.90
12839;DHT22;6486;51.034;5.262;2024-01-07T08:37:31;18.50;41.90
12839;DHT22;6486;51.034;5.262;2024-01-07T08:39:57;18.50;41.80
12839;DHT22;6486;51.034;5.262;2024-01-07T08:42:23;18.50;41.70
12839;DHT22;6486;51.034;5.262;2024-01-07T08:44:48;18.50;41.70
12839;DHT22;6486;51.034;5.262;2024-01-07T08:47:14;18.60;41.80
12839;DHT22;6486;51.034;5.262;2024-01-07T08:49:40;18.60;41.80
12839;DHT22;6486;51.034;5.262;2024-01-07T08:52:06;18.60;41.70
12839;DHT22;6486;51.034;5.262;2024-01-07T08:54:32;18.60;41.70
12839;DHT22;6486;51.034;5.262;2024-01-07T08:56:58;18.60;41.60
12839;DHT22;6486;51.034;5.262;2024-01-07T08:59:24;18.60;41.60
12839;DHT22;6486;51.034;5.262;2024-01-07T09:01:50;18.60;41.60
12839;DHT22;6486;51.034;5.262;2024-01-07T09:04:15;18.60;41.50
12839;DHT22;6486;51.034;5.262;2024-01-07T09:06:45;18.60;41.50
12839;DHT22;6486;51.034;5.262;2024-01-07T09:09:10;18.60;41.50
12839;DHT22;6486;51.034;5.262;2024-01-07T09:11:36;18.60;41.50
12839;DHT22;6486;51.034;5.262;2024-01-07T09:14:02;18.60;41.50
12839;DHT22;6486;51.034;5.262;2024-01-07T09:16:29;18.60;41.50
12839;DHT22;6486;51.034;5.262;2024-01-07T09:18:55;18.60;41.40
12839;DHT22;6486;51.034;5.262;2024-01-07T09:21:21;18.70;41.50
12839;DHT22;6486;51.034;5.262;2024-01-07T09:23:48;18.70;41.50
12839;DHT22;6486;51.034;5.262;2024-01-07T09:26:14;18.70;41.40
12839;DHT22;6486;51.034;5.262;2024-01-07T09:28:39;18.70;41.30
12839;DHT22;6486;51.034;5.262;2024-01-07T09:31:06;18.70;41.30
12839;DHT22;6486;51.034;5.262;2024-01-07T09:33:32;18.70;41.30
12839;DHT22;6486;51.034;5.262;2024-01-07T09:35:58;18.70;41.20
12839;DHT22;6486;51.034;5.262;2024-01-07T09:38:23;18.70;41.20
12839;DHT22;6486;51.034;5.262;2024-01-07T09:40:51;18.70;41.10
12839;DHT22;6486;51.034;5.262;2024-01-07T09:43:17;18.70;41.10
12839;DHT22;6486;51.034;5.262;2024-01-07T09:45:46;18.70;41.00
12839;DHT22;6486;51.034;5.262;2024-01-07T09:48:13;18.70;41.00
12839;DHT22;6486;51.034;5.262;2024-01-07T09:50:39;18.70;40.80
12839;DHT22;6486;51.034;5.262;2024-01-07T09:53:07;18.70;40.80
12839;DHT22;6486;51.034;5.262;2024-01-07T09:56:19;18.70;40.80
12839;DHT22;6486;51.034;5.262;2024-01-07T09:58:48;18.70;40.80
12839;DHT22;6486;51.034;5.262;2024-01-07T10:01:18;18.70;40.70
12839;DHT22;6486;51.034;5.262;2024-01-07T10:03:44;18.70;40.70
12839;DHT22;6486;51.034;5.262;2024-01-07T10:06:11;18.70;40.60
12839;DHT22;6486;51.034;5.262;2024-01-07T10:08:37;18.70;40.60
12839;DHT22;6486;51.034;5.262;2024-01-07T10:11:03;18.70;40.60
12839;DHT22;6486;51.034;5.262;2024-01-07T10:13:30;18.70;40.60
12839;DHT22;6486;51.034;5.262;2024-01-07T10:15:56;18.70;40.60
12839;DHT22;6486;51.034;5.262;2024-01-07T10:18:22;18.70;40.50
12839;DHT22;6486;51.034;5.262;2024-01-07T10:20:48;18.70;40.50
12839;DHT22;6486;51.034;5.262;2024-01-07T10:23:19;18.70;40.50
12839;DHT22;6486;51.034;5.262;2024-01-07T10:25:45;18.70;40.50
12839;DHT22;6486;51.034;5.262;2024-01-07T10:28:11;18.70;40.40
12839;DHT22;6486;51.034;5.262;2024-01-07T10:30:40;18.70;40.40
12839;DHT22;6486;51.034;5.262;2024-01-07T10:33:07;18.70;40.40
12839;DHT22;6486;51.034;5.262;2024-01-07T10:35:34;18.70;40.40
12839;DHT22;6486;51.034;5.262;2024-01-07T10:38:03;18.70;40.40
12839;DHT22;6486;51.034;5.262;2024-01-07T10:40:30;18.70;40.30
12839;DHT22;6486;51.034;5.262;2024-01-07T10:42:57;18.70;40.30
12839;DHT22;6486;51.034;5.262;2024-01-07T10:45:23;18.70;40.40
12839;DHT22;6486;51.034;5.262;2024-01-07T10:47:50;18.70;40.30
12839;DHT22;6486;51.034;5.262;2024-01-07T10:50:20;18.70;40.30
12839;DHT22;6486;51.034;5.262;2024-01-07T10:52:50;18.70;40.40
12839;DHT22;6486;51.034;5.262;2024-01-07T10:55:22;18.70;40.40
12839;DHT22;6486;51.034;5.262;2024-01-07T10:57:48;18.70;40.40
12839;DHT22;6486;51.034;5.262;2024-01-07T11:00:16;18.70;40.40
12839;DHT22;6486;51.034;5.262;2024-01-07T11:03:17;18.70;40.40
12839;DHT22;6486;51.034;5.262;2024-01-07T11:05:50;18.70;40.30
12839;DHT22;6486;51.034;5.262;2024-01-07T11:09:06;18.70;40.30
12839;DHT22;6486;51.034;5.262;2024-01-07T11:11:26;18.70;40.30
12839;DHT22;6486;51.034;5.262;2024-01-07T11:13:55;18.70;40.30
12839;DHT22;6486;51.034;5.262;2024-01-07T11:19:04;18.70;40.30
12839;DHT22;6486;51.034;5.262;2024-01-07T11:21:30;18.70;40.30
12839;DHT22;6486;51.034;5.262;2024-01-07T11:23:56;18.70;40.90
12839;DHT22;6486;51.034;5.262;2024-01-07T11:26:22;18.70;40.20
12839;DHT22;6486;51.034;5.262;2024-01-07T11:31:19;18.70;40.20
12839;DHT22;6486;51.034;5.262;2024-01-07T11:33:47;18.70;40.20
12839;DHT22;6486;51.034;5.262;2024-01-07T11:36:14;18.70;40.20
12839;DHT22;6486;51.034;5.262;2024-01-07T11:38:50;18.70;40.10
12839;DHT22;6486;51.034;5.262;2024-01-07T11:41:16;18.70;40.20
12839;DHT22;6486;51.034;5.262;2024-01-07T11:43:56;18.70;40.20
12839;DHT22;6486;51.034;5.262;2024-01-07T11:46:25;18.70;40.20
12839;DHT22;6486;51.034;5.262;2024-01-07T11:48:54;18.70;40.20
12839;DHT22;6486;51.034;5.262;2024-01-07T11:51:25;18.70;40.20
12839;DHT22;6486;51.034;5.262;2024-01-07T11:53:50;18.70;40.20
12839;DHT22;6486;51.034;5.262;2024-01-07T11:56:16;18.70;40.20
12839;DHT22;6486;51.034;5.262;2024-01-07T11:58:42;18.70;40.20
12839;DHT22;6486;51.034;5.262;2024-01-07T12:01:08;18.70;40.20
12839;DHT22;6486;51.034;5.262;2024-01-07T12:03:33;18.70;40.20
12839;DHT22;6486;51.034;5.262;2024-01-07T12:05:59;18.70;40.20
12839;DHT22;6486;51.034;5.262;2024-01-07T12:08:25;18.70;40.10
12839;DHT22;6486;51.034;5.262;2024-01-07T12:10:51;18.70;40.10
12839;DHT22;6486;51.034;5.262;2024-01-07T12:13:17;18.70;40.10
12839;DHT22;6486;51.034;5.262;2024-01-07T12:15:44;18.70;40.10
12839;DHT22;6486;51.034;5.262;2024-01-07T12:18:11;18.70;40.10
12839;DHT22;6486;51.034;5.262;2024-01-07T12:20:37;18.70;40.00
12839;DHT22;6486;51.034;5.262;2024-01-07T12:23:09;18.70;40.00
12839;DHT22;6486;51.034;5.262;2024-01-07T12:25:36;18.80;40.10
12839;DHT22;6486;51.034;5.262;2024-01-07T12:28:06;18.70;40.00
12839;DHT22;6486;51.034;5.262;2024-01-07T12:30:32;18.70;40.00
12839;DHT22;6486;51.034;5.262;2024-01-07T12:32:57;18.80;40.00
12839;DHT22;6486;51.034;5.262;2024-01-07T12:35:27;18.70;39.80
12839;DHT22;6486;51.034;5.262;2024-01-07T12:37:53;18.70;39.80
12839;DHT22;6486;51.034;5.262;2024-01-07T12:40:19;18.70;39.80
12839;DHT22;6486;51.034;5.262;2024-01-07T12:42:46;18.70;39.80
12839;DHT22;6486;51.034;5.262;2024-01-07T12:45:13;18.70;39.80
12839;DHT22;6486;51.034;5.262;2024-01-07T12:47:40;18.70;39.80
12839;DHT22;6486;51.034;5.262;2024-01-07T12:50:08;18.70;39.80
12839;DHT22;6486;51.034;5.262;2024-01-07T12:52:38;18.70;39.80
12839;DHT22;6486;51.034;5.262;2024-01-07T12:55:05;18.70;39.80
12839;DHT22;6486;51.034;5.262;2024-01-07T12:57:32;18.70;39.80
12839;DHT22;6486;51.034;5.262;2024-01-07T12:59:58;18.70;39.80
12839;DHT22;6486;51.034;5.262;2024-01-07T13:02:23;18.70;39.80
12839;DHT22;6486;51.034;5.262;2024-01-07T13:04:50;18.70;39.80
12839;DHT22;6486;51.034;5.262;2024-01-07T13:07:16;18.70;39.80
12839;DHT22;6486;51.034;5.262;2024-01-07T13:09:42;18.70;39.80
12839;DHT22;6486;51.034;5.262;2024-01-07T13:12:10;18.70;39.70
12839;DHT22;6486;51.034;5.262;2024-01-07T13:14:36;18.70;39.60
12839;DHT22;6486;51.034;5.262;2024-01-07T13:17:01;18.70;39.60
12839;DHT22;6486;51.034;5.262;2024-01-07T13:19:28;18.70;39.60
12839;DHT22;6486;51.034;5.262;2024-01-07T13:21:53;18.70;39.60
12839;DHT22;6486;51.034;5.262;2024-01-07T13:24:25;18.70;39.60
12839;DHT22;6486;51.034;5.262;2024-01-07T13:26:50;18.70;39.60
12839;DHT22;6486;51.034;5.262;2024-01-07T13:29:16;18.70;39.60
12839;DHT22;6486;51.034;5.262;2024-01-07T13:31:42;18.70;39.50
12839;DHT22;6486;51.034;5.262;2024-01-07T13:34:08;18.70;39.50
12839;DHT22;6486;51.034;5.262;2024-01-07T13:36:34;18.70;39.90
12839;DHT22;6486;51.034;5.262;2024-01-07T13:38:59;18.70;39.50
12839;DHT22;6486;51.034;5.262;2024-01-07T13:41:25;18.70;39.50
12839;DHT22;6486;51.034;5.262;2024-01-07T13:43:54;18.70;39.50
12839;DHT22;6486;51.034;5.262;2024-01-07T13:46:21;18.70;39.50
12839;DHT22;6486;51.034;5.262;2024-01-07T13:48:49;18.70;39.50
12839;DHT22;6486;51.034;5.262;2024-01-07T13:51:14;18.70;39.60
12839;DHT22;6486;51.034;5.262;2024-01-07T13:53:40;18.70;39.60
12839;DHT22;6486;51.034;5.262;2024-01-07T13:56:06;18.70;39.60
12839;DHT22;6486;51.034;5.262;2024-01-07T13:58:32;18.70;39.60
12839;DHT22;6486;51.034;5.262;2024-01-07T14:00:58;18.70;39.60
12839;DHT22;6486;51.034;5.262;2024-01-07T14:03:24;18.70;39.60
12839;DHT22;6486;51.034;5.262;2024-01-07T14:05:50;18.70;39.60
12839;DHT22;6486;51.034;5.262;2024-01-07T14:08:17;18.70;39.70
12839;DHT22;6486;51.034;5.262;2024-01-07T14:10:42;18.70;39.70
12839;DHT22;6486;51.034;5.262;2024-01-07T14:13:08;18.70;39.60
12839;DHT22;6486;51.034;5.262;2024-01-07T14:15:34;18.70;39.60
12839;DHT22;6486;51.034;5.262;2024-01-07T14:18:00;18.70;39.60
12839;DHT22;6486;51.034;5.262;2024-01-07T14:20:27;18.70;39.60
12839;DHT22;6486;51.034;5.262;2024-01-07T14:22:54;18.60;39.50
12839;DHT22;6486;51.034;5.262;2024-01-07T14:25:20;18.70;39.60
12839;DHT22;6486;51.034;5.262;2024-01-07T14:27:46;18.70;39.50
12839;DHT22;6486;51.034;5.262;2024-01-07T14:30:12;18.70;39.50
12839;DHT22;6486;51.034;5.262;2024-01-07T14:32:39;18.70;39.50
12839;DHT22;6486;51.034;5.262;2024-01-07T14:35:05;18.70;39.50
12839;DHT22;6486;51.034;5.262;2024-01-07T14:37:31;18.70;39.40
12839;DHT22;6486;51.034;5.262;2024-01-07T14:39:57;18.70;39.40
12839;DHT22;6486;51.034;5.262;2024-01-07T14:42:23;18.70;39.40
12839;DHT22;6486;51.034;5.262;2024-01-07T14:44:48;18.70;39.40
12839;DHT22;6486;51.034;5.262;2024-01-07T14:47:14;18.70;39.40
12839;DHT22;6486;51.034;5.262;2024-01-07T14:49:41;18.70;39.40
12839;DHT22;6486;51.034;5.262;2024-01-07T14:52:07;18.70;39.40
12839;DHT22;6486;51.034;5.262;2024-01-07T14:54:33;18.70;39.40
12839;DHT22;6486;51.034;5.262;2024-01-07T14:57:00;18.70;39.40
12839;DHT22;6486;51.034;5.262;2024-01-07T14:59:26;18.70;39.40
12839;DHT22;6486;51.034;5.262;2024-01-07T15:01:52;18.70;39.40
12839;DHT22;6486;51.034;5.262;2024-01-07T15:04:19;18.70;39.40
12839;DHT22;6486;51.034;5.262;2024-01-07T15:06:44;18.70;39.40
12839;DHT22;6486;51.034;5.262;2024-01-07T15:09:12;18.60;39.30
12839;DHT22;6486;51.034;5.262;2024-01-07T15:11:40;18.70;39.40
12839;DHT22;6486;51.034;5.262;2024-01-07T15:14:08;18.60;39.30
12839;DHT22;6486;51.034;5.262;2024-01-07T15:16:35;18.60;39.30
12839;DHT22;6486;51.034;5.262;2024-01-07T15:19:04;18.70;39.30
12839;DHT22;6486;51.034;5.262;2024-01-07T15:21:29;18.60;39.30
12839;DHT22;6486;51.034;5.262;2024-01-07T15:23:55;18.60;39.20
12839;DHT22;6486;51.034;5.262;2024-01-07T15:26:21;18.60;39.20
12839;DHT22;6486;51.034;5.262;2024-01-07T15:28:47;18.60;39.20
12839;DHT22;6486;51.034;5.262;2024-01-07T15:31:13;18.60;39.20
12839;DHT22;6486;51.034;5.262;2024-01-07T15:33:38;18.70;39.00
12839;DHT22;6486;51.034;5.262;2024-01-07T15:36:04;18.70;39.10
12839;DHT22;6486;51.034;5.262;2024-01-07T15:38:30;18.60;39.00
12839;DHT22;6486;51.034;5.262;2024-01-07T15:40:56;18.60;39.00
12839;DHT22;6486;51.034;5.262;2024-01-07T15:43:22;18.60;39.00
12839;DHT22;6486;51.034;5.262;2024-01-07T15:45:47;18.60;38.90